Time;durP1;ratioP1;P1;durP2;ratioP2;P2;SDS_P1;SDS_P2;PMS_P1;PMS_P2;Temp;Humidity;BMP_temperature;BMP_pressure;BME280_temperature;BME280_humidity;BME280_pressure;Samples;Min_cycle;Max_cycle;Signal;HPM_P1;HPM_P2
2021/04/29 00:02:05;;;;;;;2.25;1.88;;;23.50;28.40;;;;;;5032939;28;20209;-38
2021/04/29 00:04:31;;;;;;;2.00;1.80;;;23.50;28.40;;;;;;5030536;28;20710;-38
2021/04/29 00:06:57;;;;;;;2.73;1.70;;;23.50;28.40;;;;;;5025213;28;20561;-45
2021/04/29 00:09:22;;;;;;;2.45;1.98;;;23.40;28.80;;;;;;5031310;28;20230;-47
2021/04/29 00:11:48;;;;;;;1.90;1.80;;;23.50;28.40;;;;;;5031454;28;20206;-39
2021/04/29 00:14:14;;;;;;;2.20;2.00;;;23.50;28.40;;;;;;5031040;28;20207;-41
2021/04/29 00:16:40;;;;;;;2.10;1.90;;;23.50;28.40;;;;;;5032535;28;20206;-46
2021/04/29 00:19:06;;;;;;;2.30;2.00;;;23.50;28.40;;;;;;5030766;28;20329;-39
2021/04/29 00:21:32;;;;;;;2.15;1.80;;;23.50;28.40;;;;;;5032449;28;20202;-36
2021/04/29 00:23:58;;;;;;;2.08;1.90;;;23.50;28.40;;;;;;5031730;28;20213;-37
2021/04/29 00:26:24;;;;;;;1.73;1.58;;;23.50;28.50;;;;;;5030359;28;20190;-38
2021/04/29 00:28:51;;;;;;;1.70;1.60;;;23.50;28.40;;;;;;5030659;28;20226;-42
2021/04/29 00:31:17;;;;;;;2.05;1.85;;;23.50;28.40;;;;;;5032093;28;20206;-55
2021/04/29 00:33:43;;;;;;;2.00;1.90;;;23.50;28.40;;;;;;5031380;28;20573;-40
2021/04/29 00:36:09;;;;;;;1.95;1.80;;;23.50;28.40;;;;;;5031061;28;20213;-45
2021/04/29 00:38:35;;;;;;;2.33;2.08;;;23.50;28.40;;;;;;5030738;28;20592;-51
2021/04/29 00:41:01;;;;;;;2.80;1.65;;;23.50;28.40;;;;;;5032728;28;20209;-49
2021/04/29 00:43:27;;;;;;;1.95;1.67;;;23.50;28.40;;;;;;5031098;28;20203;-46
2021/04/29 00:45:53;;;;;;;2.00;1.90;;;23.50;28.40;;;;;;5031249;28;20202;-39
2021/04/29 00:48:18;;;;;;;2.13;1.60;;;23.50;28.40;;;;;;5030805;28;20312;-36
2021/04/29 00:50:44;;;;;;;1.88;1.77;;;23.50;28.40;;;;;;5030185;28;20608;-41
2021/04/29 00:53:10;;;;;;;2.38;1.48;;;23.50;28.40;;;;;;5031890;28;20206;-41
2021/04/29 00:55:36;;;;;;;1.70;1.60;;;23.50;28.40;;;;;;5030343;28;20571;-41
2021/04/29 00:58:02;;;;;;;1.92;1.60;;;23.50;28.40;;;;;;5031446;28;20225;-44
2021/04/29 01:00:28;;;;;;;2.10;1.90;;;23.50;28.40;;;;;;5030412;28;20203;-42
2021/04/29 01:02:54;;;;;;;1.75;1.65;;;23.50;28.70;;;;;;5031535;28;20557;-47
2021/04/29 01:05:20;;;;;;;1.70;1.58;;;23.50;28.40;;;;;;5030666;28;20202;-42
2021/04/29 01:07:46;;;;;;;2.00;1.90;;;23.50;28.40;;;;;;5029904;28;20700;-46
2021/04/29 01:10:12;;;;;;;1.95;1.80;;;23.40;28.40;;;;;;5030463;28;20238;-36
2021/04/29 01:12:38;;;;;;;2.05;1.88;;;23.50;28.70;;;;;;5030466;28;20242;-40
2021/04/29 01:15:04;;;;;;;2.00;1.80;;;23.40;28.40;;;;;;5031214;28;20207;-40
2021/04/29 01:17:30;;;;;;;1.83;1.73;;;23.40;28.60;;;;;;5029109;28;20229;-41
2021/04/29 01:19:56;;;;;;;1.95;1.85;;;23.40;28.60;;;;;;5031259;28;20712;-39
2021/04/29 01:22:22;;;;;;;2.88;1.55;;;23.40;28.50;;;;;;5030791;28;20202;-42
2021/04/29 01:24:48;;;;;;;1.60;1.50;;;23.40;28.60;;;;;;5029391;28;20569;-44
2021/04/29 01:27:14;;;;;;;2.50;1.70;;;23.40;28.70;;;;;;5028708;28;20225;-42
2021/04/29 01:29:40;;;;;;;1.75;1.65;;;23.40;28.60;;;;;;5030432;28;20317;-39
2021/04/29 01:32:06;;;;;;;2.13;1.70;;;23.40;28.60;;;;;;5028969;28;20252;-39
2021/04/29 01:34:32;;;;;;;2.05;1.85;;;23.40;28.80;;;;;;5029952;28;20206;-43
2021/04/29 01:36:58;;;;;;;1.67;1.58;;;23.40;28.60;;;;;;5029007;28;20233;-49
2021/04/29 01:39:24;;;;;;;1.70;1.45;;;23.40;28.70;;;;;;5030807;28;20201;-39
2021/04/29 01:41:50;;;;;;;1.67;1.58;;;23.40;28.60;;;;;;5029850;28;20202;-50
2021/04/29 01:44:16;;;;;;;2.10;1.98;;;23.40;28.50;;;;;;5030929;28;20210;-36
2021/04/29 01:46:42;;;;;;;1.80;1.70;;;23.40;28.50;;;;;;5030122;28;20602;-36
2021/04/29 01:49:08;;;;;;;2.00;1.67;;;23.40;28.60;;;;;;5028201;28;20226;-36
2021/04/29 01:51:34;;;;;;;1.90;1.80;;;23.40;28.40;;;;;;5030892;28;20225;-40
2021/04/29 01:54:00;;;;;;;1.40;1.30;;;23.40;28.30;;;;;;5030466;28;20210;-36
2021/04/29 01:56:26;;;;;;;1.40;1.30;;;23.40;28.30;;;;;;5030484;28;20199;-36
2021/04/29 01:58:52;;;;;;;1.85;1.65;;;23.40;28.30;;;;;;5029803;28;20504;-38
2021/04/29 02:01:18;;;;;;;1.88;1.70;;;23.40;28.40;;;;;;5030673;28;20198;-36
2021/04/29 02:03:44;;;;;;;1.95;1.77;;;23.50;28.70;;;;;;5028796;28;20710;-43
2021/04/29 02:06:10;;;;;;;1.77;1.60;;;23.40;28.50;;;;;;5026608;28;20257;-36
2021/04/29 02:08:36;;;;;;;2.25;2.00;;;23.40;28.50;;;;;;5028723;28;20765;-36
2021/04/29 02:11:02;;;;;;;1.75;1.63;;;23.40;28.60;;;;;;5030270;28;20194;-43
2021/04/29 02:13:28;;;;;;;1.63;1.52;;;23.40;28.40;;;;;;5029601;28;20202;-37
2021/04/29 02:15:54;;;;;;;1.90;1.70;;;23.40;28.50;;;;;;5030550;28;20677;-39
2021/04/29 02:18:20;;;;;;;1.65;1.55;;;23.50;28.50;;;;;;5028752;28;20230;-37
2021/04/29 02:20:46;;;;;;;2.97;1.73;;;23.40;28.60;;;;;;5029145;28;20643;-39
2021/04/29 02:23:12;;;;;;;1.80;1.70;;;23.40;28.60;;;;;;5028789;28;20261;-38
2021/04/29 02:25:38;;;;;;;1.70;1.60;;;23.40;28.60;;;;;;5029372;28;20210;-37
2021/04/29 02:28:04;;;;;;;1.70;1.60;;;23.40;28.60;;;;;;5030025;28;20219;-38
2021/04/29 02:30:30;;;;;;;5.07;1.65;;;23.40;28.80;;;;;;5032387;28;20241;-41
2021/04/29 02:32:56;;;;;;;1.83;1.50;;;23.40;28.70;;;;;;5034232;28;20210;-40
2021/04/29 02:35:22;;;;;;;2.60;1.52;;;23.40;28.80;;;;;;5033408;28;20203;-36
2021/04/29 02:37:48;;;;;;;1.60;1.50;;;23.40;28.70;;;;;;5033871;28;20222;-36
2021/04/29 02:40:14;;;;;;;1.73;1.60;;;23.40;28.60;;;;;;5032328;28;20214;-39
2021/04/29 02:42:39;;;;;;;1.85;1.70;;;23.40;28.60;;;;;;5033597;28;20618;-39
2021/04/29 02:45:05;;;;;;;1.60;1.50;;;23.40;28.80;;;;;;5033313;28;20203;-43
2021/04/29 02:47:31;;;;;;;1.90;1.70;;;23.40;28.80;;;;;;5033125;28;20583;-45
2021/04/29 02:49:57;;;;;;;1.60;1.50;;;23.40;28.70;;;;;;5032773;28;20237;-46
2021/04/29 02:52:23;;;;;;;1.50;1.40;;;23.40;28.80;;;;;;5032643;28;20297;-45
2021/04/29 02:54:49;;;;;;;2.17;1.48;;;23.40;28.70;;;;;;5033390;28;20206;-45
2021/04/29 02:57:15;;;;;;;1.90;1.60;;;23.40;28.80;;;;;;5033186;28;20295;-52
2021/04/29 02:59:41;;;;;;;1.65;1.55;;;23.40;28.80;;;;;;5032877;28;20592;-54
2021/04/29 03:02:07;;;;;;;1.83;1.65;;;23.40;28.80;;;;;;5033098;28;20207;-42
2021/04/29 03:04:33;;;;;;;1.55;1.45;;;23.40;28.60;;;;;;5033505;28;20544;-42
2021/04/29 03:06:59;;;;;;;1.67;1.58;;;23.40;28.80;;;;;;5033219;28;20307;-43
2021/04/29 03:09:25;;;;;;;1.90;1.50;;;23.40;28.80;;;;;;5031384;28;20222;-55
2021/04/29 03:11:51;;;;;;;1.98;1.52;;;23.40;28.70;;;;;;5032019;28;20244;-41
2021/04/29 03:14:17;;;;;;;1.98;1.35;;;23.40;28.70;;;;;;5033477;28;20210;-36
2021/04/29 03:16:43;;;;;;;2.65;1.88;;;23.40;28.70;;;;;;5031985;28;20232;-41
2021/04/29 03:19:09;;;;;;;1.50;1.40;;;23.40;28.70;;;;;;5032548;28;20198;-36
2021/04/29 03:21:35;;;;;;;1.50;1.40;;;23.40;28.70;;;;;;5031993;28;20214;-36
2021/04/29 03:24:02;;;;;;;1.40;1.30;;;23.40;28.60;;;;;;5032956;28;20199;-48
2021/04/29 03:26:28;;;;;;;2.97;1.60;;;23.40;28.60;;;;;;5032555;28;20567;-43
2021/04/29 03:28:54;;;;;;;1.60;1.50;;;23.40;28.80;;;;;;5031846;28;20222;-38
2021/04/29 03:31:20;;;;;;;2.25;1.50;;;23.40;28.80;;;;;;5032601;28;20245;-47
2021/04/29 03:33:46;;;;;;;1.65;1.33;;;23.40;28.70;;;;;;5032265;28;20207;-39
2021/04/29 03:36:12;;;;;;;1.55;1.45;;;23.40;28.80;;;;;;5033327;28;20260;-37
2021/04/29 03:38:38;;;;;;;1.63;1.50;;;23.40;28.80;;;;;;5030997;28;20624;-45
2021/04/29 03:41:04;;;;;;;1.55;1.45;;;23.40;28.80;;;;;;5021656;28;20203;-36
2021/04/29 03:43:30;;;;;;;2.17;1.50;;;23.40;28.80;;;;;;5032712;28;20229;-37
2021/04/29 03:45:56;;;;;;;1.70;1.60;;;23.40;28.90;;;;;;5031844;28;20207;-45
2021/04/29 03:48:22;;;;;;;1.95;1.50;;;23.40;28.80;;;;;;5031629;28;20241;-36
2021/04/29 03:50:48;;;;;;;2.38;1.50;;;23.40;28.90;;;;;;5032168;28;20252;-46
2021/04/29 03:53:14;;;;;;;1.63;1.52;;;23.40;28.90;;;;;;5032781;28;20218;-45
2021/04/29 03:55:40;;;;;;;2.33;1.30;;;23.40;28.90;;;;;;5031643;28;20558;-43
2021/04/29 03:58:06;;;;;;;1.70;1.60;;;23.40;28.90;;;;;;5030155;28;20221;-39
2021/04/29 04:00:32;;;;;;;1.58;1.45;;;23.40;28.90;;;;;;5031187;28;20533;-41
2021/04/29 04:02:58;;;;;;;1.90;1.70;;;23.40;28.90;;;;;;5032886;28;20244;-37
2021/04/29 04:05:24;;;;;;;3.47;1.70;;;23.40;28.90;;;;;;5031715;28;20199;-39
2021/04/29 04:07:50;;;;;;;1.65;1.40;;;23.40;28.90;;;;;;5028006;28;20222;-38
2021/04/29 04:10:16;;;;;;;1.98;1.50;;;23.40;28.90;;;;;;5032928;28;20234;-38
2021/04/29 04:12:42;;;;;;;1.70;1.60;;;23.40;28.90;;;;;;5030471;28;20207;-41
2021/04/29 04:15:08;;;;;;;2.08;1.60;;;23.40;28.90;;;;;;5032553;28;20194;-37
2021/04/29 04:17:34;;;;;;;1.73;1.50;;;23.40;29.20;;;;;;5029710;28;20741;-39
2021/04/29 04:20:00;;;;;;;3.00;1.95;;;23.50;29.70;;;;;;5030396;28;20203;-40
2021/04/29 04:22:26;;;;;;;1.55;1.45;;;23.50;29.30;;;;;;5030380;28;20515;-51
2021/04/29 04:24:52;;;;;;;1.60;1.50;;;23.40;29.00;;;;;;5032593;28;20207;-38
2021/04/29 04:27:18;;;;;;;1.77;1.67;;;23.50;28.90;;;;;;5030398;28;20218;-37
2021/04/29 04:29:44;;;;;;;1.60;1.50;;;23.40;28.80;;;;;;5031547;28;20241;-37
2021/04/29 04:32:10;;;;;;;1.95;1.65;;;23.40;28.80;;;;;;5030747;28;20214;-42
2021/04/29 04:34:36;;;;;;;1.58;1.42;;;23.40;28.90;;;;;;5031836;28;20570;-43
2021/04/29 04:37:02;;;;;;;2.30;1.50;;;23.40;28.90;;;;;;5030213;28;20272;-37
2021/04/29 04:39:28;;;;;;;2.80;1.50;;;23.40;29.00;;;;;;5031556;28;20566;-43
2021/04/29 04:41:54;;;;;;;1.75;1.65;;;23.40;28.90;;;;;;5031302;28;20202;-45
2021/04/29 04:44:20;;;;;;;1.63;1.52;;;23.40;28.90;;;;;;5030752;28;20507;-37
2021/04/29 04:46:46;;;;;;;1.92;1.45;;;23.40;28.80;;;;;;5028160;28;20218;-43
2021/04/29 04:49:12;;;;;;;1.30;1.20;;;23.40;28.80;;;;;;5031624;28;20648;-43
2021/04/29 04:51:38;;;;;;;1.40;1.30;;;23.40;28.80;;;;;;5030583;28;20215;-38
2021/04/29 04:54:04;;;;;;;1.70;1.50;;;23.40;28.80;;;;;;5030662;28;20206;-37
2021/04/29 04:56:30;;;;;;;1.50;1.40;;;23.40;28.90;;;;;;5031533;28;20817;-43
2021/04/29 04:58:56;;;;;;;1.60;1.50;;;23.40;28.70;;;;;;5030491;28;20221;-36
2021/04/29 05:01:22;;;;;;;1.88;1.30;;;23.40;28.90;;;;;;5028830;28;20202;-41
2021/04/29 05:03:48;;;;;;;1.50;1.40;;;23.40;28.80;;;;;;5030761;28;20673;-37
2021/04/29 05:06:14;;;;;;;1.63;1.52;;;23.40;28.80;;;;;;5030435;28;20226;-36
2021/04/29 05:08:40;;;;;;;1.30;1.20;;;23.40;28.90;;;;;;5029837;28;20238;-50
2021/04/29 05:11:06;;;;;;;1.73;1.10;;;23.40;28.80;;;;;;5029924;28;20206;-37
2021/04/29 05:13:32;;;;;;;1.40;1.30;;;23.40;28.80;;;;;;5031032;28;20311;-37
2021/04/29 05:15:58;;;;;;;1.40;1.30;;;23.40;29.00;;;;;;5029672;28;20635;-41
2021/04/29 05:18:24;;;;;;;1.53;1.30;;;23.40;28.80;;;;;;5028937;28;20199;-37
2021/04/29 05:20:50;;;;;;;1.50;1.40;;;23.40;28.80;;;;;;5028320;28;20206;-44
2021/04/29 05:23:16;;;;;;;1.40;1.30;;;23.40;28.80;;;;;;5030006;28;20205;-37
2021/04/29 05:25:42;;;;;;;1.30;1.20;;;23.40;28.80;;;;;;5029478;28;20210;-40
2021/04/29 05:28:08;;;;;;;2.55;1.20;;;23.40;28.80;;;;;;5030099;28;20222;-48
2021/04/29 05:30:34;;;;;;;1.60;1.50;;;23.40;28.80;;;;;;5029793;28;20611;-46
2021/04/29 05:33:00;;;;;;;1.30;1.20;;;23.40;28.80;;;;;;5031219;28;20203;-42
2021/04/29 05:35:26;;;;;;;2.17;1.40;;;23.40;28.80;;;;;;5026280;28;20210;-37
2021/04/29 05:37:52;;;;;;;1.80;1.40;;;23.50;29.50;;;;;;5026617;28;20221;-42
2021/04/29 05:40:18;;;;;;;2.97;1.70;;;23.50;30.10;;;;;;5026757;28;20198;-36
2021/04/29 05:42:45;;;;;;;9.13;2.70;;;23.50;29.90;;;;;;5028455;28;20198;-40
2021/04/29 05:45:11;;;;;;;2.22;1.50;;;23.50;30.00;;;;;;5030207;28;20209;-36
2021/04/29 05:47:37;;;;;;;2.13;1.75;;;23.60;29.70;;;;;;5028241;28;20230;-37
2021/04/29 05:50:04;;;;;;;3.20;1.50;;;23.50;29.70;;;;;;5030817;28;20244;-46
2021/04/29 05:52:30;;;;;;;9.60;1.77;;;23.60;30.00;;;;;;5027197;28;20247;-41
2021/04/29 05:54:56;;;;;;;2.90;1.30;;;23.60;29.90;;;;;;5025395;28;20210;-44
2021/04/29 05:57:22;;;;;;;1.08;0.95;;;23.30;27.80;;;;;;5026588;28;20628;-41
2021/04/29 05:59:48;;;;;;;1.67;1.10;;;19.70;29.60;;;;;;5024472;28;20202;-35
2021/04/29 06:02:14;;;;;;;1.53;1.30;;;20.70;30.20;;;;;;5029982;28;20229;-43
2021/04/29 06:04:40;;;;;;;1.30;1.20;;;21.70;29.70;;;;;;5034151;28;20220;-38
2021/04/29 06:07:06;;;;;;;1.57;1.20;;;22.20;29.30;;;;;;5035126;28;20230;-37
2021/04/29 06:09:32;;;;;;;1.27;1.00;;;22.60;29.00;;;;;;5035931;28;20358;-34
2021/04/29 06:11:59;;;;;;;3.87;1.40;;;22.90;29.10;;;;;;5035351;28;20562;-34
2021/04/29 06:14:25;;;;;;;5.00;1.20;;;23.00;29.20;;;;;;5034719;28;20730;-35
2021/04/29 06:16:51;;;;;;;2.87;1.27;;;23.10;29.30;;;;;;5034810;28;20243;-38
2021/04/29 06:19:18;;;;;;;1.20;1.10;;;23.20;29.30;;;;;;5035807;28;20206;-40
2021/04/29 06:21:44;;;;;;;3.40;1.40;;;23.20;29.40;;;;;;5036961;28;20210;-39
2021/04/29 06:24:10;;;;;;;1.30;1.00;;;23.30;29.40;;;;;;5030704;28;20624;-41
2021/04/29 06:26:36;;;;;;;2.30;1.00;;;23.30;29.50;;;;;;5035858;28;20221;-46
2021/04/29 06:29:02;;;;;;;1.37;1.13;;;23.40;29.70;;;;;;5034589;28;20222;-34
2021/04/29 06:31:28;;;;;;;1.95;1.20;;;23.40;30.00;;;;;;5036744;28;20205;-34
2021/04/29 06:33:54;;;;;;;1.05;0.95;;;23.50;30.10;;;;;;5034811;28;20217;-41
2021/04/29 06:36:20;;;;;;;2.15;0.93;;;23.50;30.10;;;;;;5034057;28;20230;-42
2021/04/29 06:38:46;;;;;;;3.20;1.00;;;23.60;30.00;;;;;;5009746;28;20209;-33
2021/04/29 06:41:12;;;;;;;1.00;0.90;;;23.50;29.90;;;;;;5047345;28;20621;-40
2021/04/29 06:43:38;;;;;;;2.50;1.10;;;23.50;30.20;;;;;;5034653;28;20206;-34
2021/04/29 06:46:04;;;;;;;2.17;1.30;;;23.60;30.80;;;;;;5041105;28;20229;-42
2021/04/29 06:48:30;;;;;;;1.02;0.85;;;23.50;31.20;;;;;;5054812;28;20676;-36
2021/04/29 06:50:56;;;;;;;4.95;1.10;;;23.50;31.10;;;;;;5053335;28;20205;-36
2021/04/29 06:53:22;;;;;;;1.83;0.80;;;23.60;31.10;;;;;;5051747;28;20295;-41
2021/04/29 06:55:48;;;;;;;1.27;0.90;;;23.60;31.20;;;;;;5054818;28;20572;-34
2021/04/29 06:58:14;;;;;;;0.95;0.80;;;23.60;31.20;;;;;;5054792;28;20210;-38
2021/04/29 07:00:40;;;;;;;2.15;0.70;;;23.60;31.00;;;;;;5052157;28;20209;-36
2021/04/29 07:03:06;;;;;;;4.95;1.35;;;23.60;30.70;;;;;;5055926;28;20210;-38
2021/04/29 07:05:32;;;;;;;4.50;1.00;;;23.50;30.00;;;;;;5054021;28;20719;-45
2021/04/29 07:07:58;;;;;;;1.50;1.05;;;23.50;29.90;;;;;;5055828;28;20255;-34
2021/04/29 07:10:24;;;;;;;1.63;1.10;;;23.40;30.00;;;;;;5052808;28;20229;-34
2021/04/29 07:12:50;;;;;;;1.85;0.95;;;23.50;30.50;;;;;;5049268;28;20214;-34
2021/04/29 07:15:16;;;;;;;2.30;0.75;;;23.60;30.20;;;;;;5046680;28;20631;-33
2021/04/29 07:17:42;;;;;;;1.70;1.20;;;23.50;30.00;;;;;;5051036;28;20287;-35
2021/04/29 07:20:08;;;;;;;2.10;1.00;;;23.50;29.70;;;;;;5052327;28;20263;-36
2021/04/29 07:22:34;;;;;;;1.35;1.00;;;23.50;29.70;;;;;;5052738;28;20614;-35
2021/04/29 07:25:00;;;;;;;1.75;0.90;;;23.50;29.60;;;;;;5050524;28;20199;-41
2021/04/29 07:27:26;;;;;;;3.28;1.17;;;23.60;29.80;;;;;;5050638;28;20233;-39
2021/04/29 07:29:52;;;;;;;2.40;0.95;;;23.60;30.10;;;;;;5045611;28;20242;-42
2021/04/29 07:32:18;;;;;;;3.58;1.20;;;23.50;29.80;;;;;;5042405;28;20198;-32
2021/04/29 07:34:44;;;;;;;3.33;1.50;;;23.40;29.10;;;;;;5051562;28;20707;-45
2021/04/29 07:37:10;;;;;;;3.97;1.27;;;23.40;29.50;;;;;;5050291;28;20252;-45
2021/04/29 07:39:36;;;;;;;2.95;1.67;;;23.40;29.50;;;;;;5052415;28;20627;-44
2021/04/29 07:42:02;;;;;;;5.55;1.50;;;23.50;29.80;;;;;;5050153;28;20367;-45
2021/04/29 07:44:28;;;;;;;4.90;1.30;;;23.40;30.00;;;;;;5049471;28;20570;-32
2021/04/29 07:46:54;;;;;;;2.75;1.10;;;23.50;30.00;;;;;;5049369;28;20233;-32
2021/04/29 07:49:20;;;;;;;5.50;1.10;;;23.50;30.00;;;;;;5052559;28;20240;-39
2021/04/29 07:51:46;;;;;;;1.95;1.10;;;23.50;29.90;;;;;;5052077;28;20204;-32
2021/04/29 07:54:14;;;;;;;3.20;1.17;;;23.50;30.50;;;;;;5051964;28;20225;-45
2021/04/29 07:56:40;;;;;;;3.58;1.60;;;23.50;30.00;;;;;;5048233;28;20221;-32
2021/04/29 07:59:06;;;;;;;2.38;1.10;;;23.50;30.00;;;;;;5051158;28;20201;-41
2021/04/29 08:01:32;;;;;;;1.30;1.20;;;23.50;29.80;;;;;;5051335;28;20621;-54
2021/04/29 08:04:01;;;;;;;2.58;1.00;;;23.60;29.70;;;;;;5049547;28;20202;-39
2021/04/29 08:06:27;;;;;;;3.90;1.27;;;23.60;29.50;;;;;;5050473;28;20253;-48
2021/04/29 08:08:53;;;;;;;1.73;1.02;;;23.60;30.20;;;;;;5049269;28;20206;-33
2021/04/29 08:11:18;;;;;;;1.10;0.80;;;23.60;30.00;;;;;;5049554;28;20237;-41
2021/04/29 08:13:44;;;;;;;1.65;0.95;;;23.60;29.90;;;;;;5051762;28;20198;-39
2021/04/29 08:16:10;;;;;;;3.08;1.20;;;23.60;29.90;;;;;;5049773;28;20629;-50
2021/04/29 08:18:36;;;;;;;1.90;0.95;;;23.50;29.90;;;;;;5051605;28;20209;-46
2021/04/29 08:21:03;;;;;;;1.73;1.08;;;23.50;29.70;;;;;;5050599;28;20271;-44
2021/04/29 08:23:29;;;;;;;1.00;1.00;;;23.50;29.70;;;;;;5051284;28;20206;-36
2021/04/29 08:25:55;;;;;;;2.20;1.10;;;23.50;29.90;;;;;;5046455;28;20269;-47
2021/04/29 08:28:21;;;;;;;1.20;1.10;;;23.50;30.00;;;;;;5033611;28;20194;-40
2021/04/29 08:30:47;;;;;;;1.77;1.05;;;23.50;29.90;;;;;;5043075;28;20252;-40
2021/04/29 08:33:13;;;;;;;2.13;1.08;;;23.50;30.10;;;;;;5051261;28;20202;-36
2021/04/29 08:35:39;;;;;;;2.40;1.23;;;23.50;30.10;;;;;;5052739;28;20272;-48
2021/04/29 08:38:05;;;;;;;1.50;1.27;;;23.50;30.00;;;;;;5041425;28;20222;-37
2021/04/29 08:40:31;;;;;;;6.47;1.90;;;23.50;30.20;;;;;;5043209;28;20658;-46
2021/04/29 08:42:57;;;;;;;4.88;1.55;;;23.50;30.00;;;;;;5049246;28;20213;-39
2021/04/29 08:45:23;;;;;;;2.67;1.08;;;23.50;30.20;;;;;;5036588;28;20594;-47
2021/04/29 08:47:49;;;;;;;1.67;1.20;;;23.50;30.10;;;;;;5041645;28;20205;-40
2021/04/29 08:50:15;;;;;;;2.63;1.08;;;23.50;30.20;;;;;;5049488;28;20232;-39
2021/04/29 08:52:41;;;;;;;1.48;1.30;;;23.50;30.40;;;;;;5049504;28;20206;-41
2021/04/29 08:55:07;;;;;;;1.50;1.10;;;23.50;30.30;;;;;;5048433;28;20206;-35
2021/04/29 08:57:33;;;;;;;3.33;1.10;;;23.50;30.70;;;;;;5051133;28;20200;-42
2021/04/29 08:59:59;;;;;;;1.45;1.10;;;23.50;31.00;;;;;;5045434;28;20205;-39
2021/04/29 09:02:25;;;;;;;1.38;1.05;;;23.60;30.50;;;;;;5049184;28;20757;-39
2021/04/29 09:04:51;;;;;;;2.00;1.00;;;23.60;30.10;;;;;;5050087;28;20202;-41
2021/04/29 09:07:18;;;;;;;2.92;1.35;;;23.50;30.00;;;;;;5051296;28;20305;-43
2021/04/29 09:09:44;;;;;;;1.40;0.93;;;23.60;29.90;;;;;;5051488;28;20253;-35
2021/04/29 09:12:10;;;;;;;2.80;1.15;;;23.60;29.80;;;;;;5045912;28;20221;-42
2021/04/29 09:14:36;;;;;;;2.13;1.05;;;23.60;29.90;;;;;;5050077;28;20201;-37
2021/04/29 09:17:02;;;;;;;2.45;1.40;;;23.60;29.50;;;;;;5043565;28;20217;-40
2021/04/29 09:19:28;;;;;;;1.75;1.05;;;23.60;29.70;;;;;;5045543;28;20237;-37
2021/04/29 09:21:54;;;;;;;1.20;1.10;;;23.60;29.70;;;;;;5040081;28;20206;-34
2021/04/29 09:24:20;;;;;;;1.10;1.00;;;23.60;29.70;;;;;;5048713;28;20557;-38
2021/04/29 09:26:46;;;;;;;1.75;1.08;;;23.60;29.50;;;;;;5046827;28;20317;-42
2021/04/29 09:29:14;;;;;;;1.25;1.15;;;23.60;29.70;;;;;;5050214;28;20655;-52
2021/04/29 09:31:40;;;;;;;1.25;1.10;;;23.60;29.60;;;;;;5050953;28;20574;-45
2021/04/29 09:34:06;;;;;;;1.80;1.08;;;23.60;29.50;;;;;;5050948;28;20211;-48
2021/04/29 09:36:32;;;;;;;2.15;1.00;;;23.60;29.50;;;;;;5050387;28;20214;-38
2021/04/29 09:38:58;;;;;;;1.25;1.00;;;23.60;29.60;;;;;;5049157;28;20230;-44
2021/04/29 09:41:24;;;;;;;1.08;0.98;;;23.60;29.50;;;;;;5050000;28;20566;-35
2021/04/29 09:43:49;;;;;;;1.00;0.90;;;23.60;29.70;;;;;;5050327;28;20202;-42
2021/04/29 09:46:15;;;;;;;0.82;0.80;;;23.60;29.50;;;;;;5038693;28;20225;-36
2021/04/29 09:48:42;;;;;;;1.15;1.00;;;23.60;29.50;;;;;;5048097;28;20674;-42
2021/04/29 09:51:08;;;;;;;1.27;0.90;;;23.60;29.40;;;;;;5050353;28;20206;-34
2021/04/29 09:53:34;;;;;;;1.58;1.20;;;23.70;29.50;;;;;;5050216;28;20201;-47
2021/04/29 09:56:00;;;;;;;1.67;0.95;;;23.70;29.60;;;;;;5049396;28;20232;-45
2021/04/29 09:58:29;;;;;;;0.88;0.88;;;23.70;29.50;;;;;;5049244;28;20970;-34
2021/04/29 10:00:55;;;;;;;1.05;0.98;;;23.70;29.60;;;;;;5049596;28;20201;-38
2021/04/29 10:03:21;;;;;;;1.50;0.80;;;23.60;29.40;;;;;;5047449;28;20205;-44
2021/04/29 10:05:53;;;;;;;1.10;1.00;;;23.70;29.50;;;;;;5050082;28;20294;-45
2021/04/29 10:08:19;;;;;;;2.05;1.08;;;23.70;29.60;;;;;;5049590;28;20242;-43
2021/04/29 10:10:45;;;;;;;3.03;1.08;;;23.70;29.50;;;;;;5049966;28;20229;-37
2021/04/29 10:13:11;;;;;;;1.27;1.17;;;23.70;29.50;;;;;;5050332;28;20206;-41
2021/04/29 10:15:38;;;;;;;1.40;1.00;;;23.70;29.80;;;;;;5049911;28;20673;-35
2021/04/29 10:18:04;;;;;;;1.85;1.00;;;23.70;29.60;;;;;;5049765;28;20220;-41
2021/04/29 10:20:31;;;;;;;1.77;1.00;;;23.70;29.50;;;;;;5049853;28;20198;-43
2021/04/29 10:22:57;;;;;;;2.35;1.00;;;23.70;29.50;;;;;;5050064;28;20236;-44
2021/04/29 10:25:23;;;;;;;0.90;0.90;;;23.70;29.60;;;;;;5050274;28;20249;-38
2021/04/29 10:27:49;;;;;;;1.73;0.90;;;23.70;29.50;;;;;;5050211;28;20202;-33
2021/04/29 10:30:16;;;;;;;1.40;1.30;;;23.70;29.50;;;;;;5049074;28;20237;-35
2021/04/29 10:32:42;;;;;;;1.27;1.08;;;23.70;29.80;;;;;;5050307;28;20197;-40
2021/04/29 10:35:08;;;;;;;1.70;0.90;;;23.80;29.60;;;;;;5053253;28;20225;-39
2021/04/29 10:37:34;;;;;;;1.45;0.90;;;23.80;29.40;;;;;;5049666;28;20268;-37
2021/04/29 10:40:02;;;;;;;1.13;1.02;;;23.80;30.00;;;;;;5050240;28;20202;-40
2021/04/29 10:42:28;;;;;;;1.45;1.00;;;23.70;29.70;;;;;;5050755;28;20337;-45
2021/04/29 10:44:54;;;;;;;1.00;0.90;;;23.80;29.90;;;;;;5037917;28;20233;-40
2021/04/29 10:47:20;;;;;;;0.90;0.90;;;23.80;29.70;;;;;;5049777;28;20205;-47
2021/04/29 10:49:47;;;;;;;2.35;1.00;;;23.80;29.60;;;;;;5047807;28;20728;-44
2021/04/29 10:52:13;;;;;;;1.15;1.00;;;23.80;30.00;;;;;;5050907;28;20209;-38
2021/04/29 10:54:38;;;;;;;1.30;1.20;;;23.90;30.30;;;;;;5040172;28;20207;-43
2021/04/29 10:57:05;;;;;;;1.63;1.40;;;23.90;30.10;;;;;;5034977;28;20207;-43
2021/04/29 10:59:31;;;;;;;1.48;1.38;;;23.80;30.10;;;;;;5048724;28;20202;-42
2021/04/29 11:01:57;;;;;;;1.88;1.50;;;23.80;30.00;;;;;;5053685;28;20263;-39
2021/04/29 11:04:23;;;;;;;2.17;1.45;;;23.90;30.00;;;;;;5053911;28;20210;-45
2021/04/29 11:06:49;;;;;;;3.28;1.48;;;23.90;30.10;;;;;;5052886;28;20222;-43
2021/04/29 11:09:14;;;;;;;1.85;1.50;;;23.90;30.20;;;;;;5053689;28;20551;-52
2021/04/29 11:11:40;;;;;;;2.65;1.35;;;23.90;30.50;;;;;;5052888;28;20217;-38
2021/04/29 11:14:07;;;;;;;1.70;1.30;;;23.90;30.50;;;;;;5053133;28;20548;-41
2021/04/29 11:16:32;;;;;;;1.63;1.38;;;23.90;30.50;;;;;;5053773;28;20601;-34
2021/04/29 11:18:58;;;;;;;1.50;1.35;;;23.90;30.80;;;;;;5052886;28;20202;-35
2021/04/29 11:21:24;;;;;;;2.55;1.40;;;23.90;30.80;;;;;;5052344;28;20264;-48
2021/04/29 11:23:50;;;;;;;1.63;1.33;;;23.90;31.10;;;;;;5052855;28;20646;-40
2021/04/29 11:26:17;;;;;;;1.85;1.50;;;23.80;30.80;;;;;;5052742;28;20226;-50
2021/04/29 11:28:43;;;;;;;1.45;1.35;;;23.90;31.00;;;;;;5049962;28;20283;-45
2021/04/29 11:31:09;;;;;;;2.00;1.45;;;23.90;31.10;;;;;;5052570;28;20230;-39
2021/04/29 11:33:35;;;;;;;2.70;1.63;;;23.80;30.60;;;;;;5054078;28;20224;-34
2021/04/29 11:36:01;;;;;;;3.30;1.30;;;23.80;30.60;;;;;;5053203;28;20313;-36
2021/04/29 11:38:27;;;;;;;1.73;1.23;;;23.90;30.70;;;;;;5050089;28;20596;-40
2021/04/29 11:40:53;;;;;;;1.90;1.55;;;23.90;30.60;;;;;;5052912;28;20240;-41
2021/04/29 11:43:19;;;;;;;1.67;1.20;;;23.90;30.80;;;;;;5052604;28;20224;-42
2021/04/29 11:45:45;;;;;;;1.60;1.48;;;23.80;30.30;;;;;;5053053;28;20292;-39
2021/04/29 11:48:11;;;;;;;2.40;1.55;;;23.90;30.50;;;;;;5045200;28;20201;-41
2021/04/29 11:50:37;;;;;;;2.67;1.40;;;23.90;30.40;;;;;;5046205;28;20704;-44
2021/04/29 11:53:03;;;;;;;1.52;1.42;;;23.90;30.70;;;;;;5053148;28;20206;-41
2021/04/29 11:55:29;;;;;;;1.77;1.30;;;23.90;30.50;;;;;;5051601;28;20708;-41
2021/04/29 11:57:55;;;;;;;2.00;1.42;;;23.90;30.50;;;;;;5051970;28;20197;-39
2021/04/29 12:00:21;;;;;;;1.48;1.33;;;23.90;30.60;;;;;;5052183;28;20692;-41
2021/04/29 12:02:47;;;;;;;1.40;1.20;;;23.90;30.60;;;;;;5051989;28;20221;-37
2021/04/29 12:05:13;;;;;;;1.45;1.35;;;23.90;30.50;;;;;;5051632;28;20642;-45
2021/04/29 12:07:39;;;;;;;1.95;1.75;;;23.90;30.50;;;;;;5051243;28;20197;-37
2021/04/29 12:10:05;;;;;;;2.25;1.30;;;23.90;30.50;;;;;;5051570;28;20569;-39
2021/04/29 12:12:31;;;;;;;1.98;1.77;;;23.90;30.40;;;;;;5049930;28;20202;-39
2021/04/29 12:14:57;;;;;;;1.20;1.10;;;23.90;30.60;;;;;;5052735;28;20727;-34
2021/04/29 12:17:23;;;;;;;2.13;1.30;;;23.90;30.40;;;;;;5052147;28;20205;-44
2021/04/29 12:19:49;;;;;;;2.67;1.20;;;23.90;30.60;;;;;;5052398;28;20205;-37
2021/04/29 12:22:15;;;;;;;1.45;1.25;;;23.90;30.50;;;;;;5051011;28;20202;-37
2021/04/29 12:24:41;;;;;;;1.33;1.23;;;23.90;30.50;;;;;;5051921;28;20585;-39
2021/04/29 12:27:07;;;;;;;1.67;1.30;;;23.90;30.80;;;;;;5051126;28;20206;-35
2021/04/29 12:29:33;;;;;;;1.83;1.30;;;23.90;30.70;;;;;;5052056;28;20222;-41
2021/04/29 12:32:00;;;;;;;1.17;1.08;;;23.90;30.90;;;;;;5051660;28;20677;-35
2021/04/29 12:34:26;;;;;;;1.65;1.30;;;23.90;30.70;;;;;;5052132;28;20323;-35
2021/04/29 12:36:52;;;;;;;1.33;1.23;;;23.90;30.60;;;;;;5051429;28;20241;-34
2021/04/29 12:39:18;;;;;;;2.08;1.30;;;23.80;30.60;;;;;;5050639;28;20689;-34
2021/04/29 12:41:46;;;;;;;2.10;1.60;;;23.90;30.90;;;;;;5051753;28;20201;-37